Close

Questo sito utlizza cookie. Può leggere come li usiamo nella nostra Privacy Policy.

Ronchi Tower
Ronchi Tower

From Facebook

METAR & TAF

2018/11/21 17:50 LIPQ 211750Z 03003KT 9999 BKN025 09/07 Q1015
2018/11/21 18:21 TAF LIPQ 211700Z 2118/2218 VRB06KT 9999 BKN030
2018/11/21 17:50 LIPZ 211750Z 06002KT CAVOK 06/05 Q1016 NOSIG
2018/11/21 18:21 TAF LIPZ 211700Z 2118/2224 VRB05KT 9999 FEW050 TEMPO 2118/2124 RA TEMPO 2200/2206 4000 BR
2018/11/21 17:50 LIPH 211750Z 11002KT CAVOK 07/05 Q1015
2018/11/21 18:21 TAF LIPH 211700Z 2118/2218 VRB04KT 9999 SCT060 TEMPO 2122/2207 2000 BR
2018/11/21 17:50 LIRF 211750Z 15009KT CAVOK 14/13 Q1015 NOSIG
2018/11/21 18:21 TAF LIRF 211700Z 2118/2224 17012KT 9999 SCT020 TEMPO 2118/2120 SHRA TEMPO 2120/2203 RA TEMPO 2203/2206 SHRA BECMG 2121/2123 VRB05KT
2018/11/21 17:50 LIML 211750Z 25004KT 9999 -RA FEW008 SCT020 BKN060 06/06 Q1016 NOSIG
2018/11/21 18:21 TAF TAF LIML 211700Z 2118/2218 VRB05KT 7000 SCT025 BKN060 TEMPO 2118/2124 RA TEMPO 2203/2208 0400 FG
2018/11/21 18:20 EDDM 211820Z 22003KT 170V240 8000 -DZ OVC007 02/01 Q1016 NOSIG
2018/11/21 18:27 TAF EDDM 211700Z 2118/2224 09004KT 7000 OVC006 TEMPO 2122/2209 4000 BR OVC004 BECMG 2211/2213 SCT012 BECMG 2220/2223 0500 FZFG VV001
2018/11/21 17:50 EGSS 211750Z AUTO 10006KT 070V150 8000 NCD 03/01 Q1017
2018/11/21 18:09 TAF EGSS 211703Z 2118/2224 14010KT 9999 SCT018 BECMG 2118/2121 VRB03KT 8000 PROB40 TEMPO 2123/2208 0200 FG FZFG VV/// BECMG 2205/2208 4000 BR OVC003 PROB30 TEMPO 2208/2211 0300 DZ FG OVC000 BECMG 2211/2214 7000 NSW SCT006 TEMPO 2214/2218 9999 BKN006 PROB30 TEMPO 2214/2218 4000 BR PROB40 TEMPO 2218/2224 4000 BR

FlightRadar24

Radar Meteo

Traffic data

Marzo 2018

Passeggeri: 57555-3,4% (rank: 23)
Nazionali 39679 +1,0% 21°
Internazionali 17689 -11,7% 23°

Movimenti: 1074-16,3% (rank: 21)
Tot commerciale 653 -10,3% 22°
Aviazione generale 421 -24,1%

Cargo (tons): 96,3109,5% (rank: 18)

Gennaio - Marzo 2018

Passeggeri: 155953-1,4% (rank: 23)
Nazionali 108431 +3,9% 21°
Internazionali 47066 -11,5% 22°

Movimenti: 3163-14,5% (rank: 21)
Tot commerciale 1876 -7,3% 21°
Aviazione generale 1287 -23,3%

Cargo (tons): 125,6+16,7% (rank: 21)

Photo

Douglas DC-6B
Douglas DC-6B
Distinct views: 13
Douglas DC-6B
Douglas DC-6B
Distinct views: 52
Douglas DC-6B
Douglas DC-6B
Distinct views: 183
Apron
Apron
Total views: 1023